createdAt,value
2018-02-22T00:00:35.699Z,0.00
2018-02-22T00:01:35.564Z,0.00
2018-02-22T00:02:35.426Z,0.00
2018-02-22T00:03:35.291Z,0.00
2018-02-22T00:04:35.155Z,0.00
2018-02-22T00:05:35.017Z,0.00
2018-02-22T00:06:34.883Z,0.00
2018-02-22T00:07:34.746Z,0.00
2018-02-22T00:08:34.612Z,0.00
2018-02-22T00:09:35.468Z,0.00
2018-02-22T00:10:34.337Z,0.00
2018-02-22T00:11:34.199Z,0.00
2018-02-22T00:12:34.063Z,0.00
2018-02-22T00:13:33.927Z,0.00
2018-02-22T00:14:33.791Z,0.00
2018-02-22T00:15:33.654Z,0.00
2018-02-22T00:16:33.516Z,0.00
2018-02-22T00:17:33.385Z,0.00
2018-02-22T00:18:33.245Z,0.00
2018-02-22T00:19:33.110Z,0.00
2018-02-22T00:20:32.971Z,0.00
2018-02-22T00:21:32.834Z,0.00
2018-02-22T00:22:32.704Z,0.00
2018-02-22T00:23:32.565Z,0.00
2018-02-22T00:24:32.430Z,0.00
2018-02-22T00:25:32.293Z,0.00
2018-02-22T00:26:32.154Z,0.00
2018-02-22T00:27:32.019Z,0.00
2018-02-22T00:28:31.881Z,0.00
2018-02-22T00:29:31.746Z,0.00
2018-02-22T00:30:31.609Z,0.00
2018-02-22T00:31:31.474Z,0.00
2018-02-22T00:32:31.336Z,0.00
2018-02-22T00:33:31.200Z,0.00
2018-02-22T00:34:31.065Z,0.00
2018-02-22T00:35:30.928Z,0.00
2018-02-22T00:36:30.792Z,0.00
2018-02-22T00:37:30.658Z,0.00
2018-02-22T00:38:30.524Z,0.00
2018-02-22T00:39:30.386Z,0.00
2018-02-22T00:40:30.248Z,0.00
2018-02-22T00:41:30.116Z,0.00
2018-02-22T00:42:29.977Z,0.00
2018-02-22T00:43:29.843Z,0.00
2018-02-22T00:44:29.705Z,0.00
2018-02-22T00:45:29.566Z,0.00
2018-02-22T00:46:29.435Z,0.00
2018-02-22T00:47:29.295Z,0.00
2018-02-22T00:48:29.159Z,0.00
2018-02-22T00:49:29.022Z,0.00
2018-02-22T00:50:28.885Z,0.00
2018-02-22T00:51:28.749Z,0.00
2018-02-22T00:52:28.611Z,0.00
2018-02-22T00:53:28.475Z,0.00
2018-02-22T00:54:28.338Z,0.00
2018-02-22T00:55:28.204Z,0.00
2018-02-22T00:56:28.066Z,0.00
2018-02-22T00:57:27.934Z,0.00
2018-02-22T00:58:27.794Z,0.00
2018-02-22T00:59:27.658Z,0.00
2018-02-22T01:00:27.519Z,0.00
2018-02-22T01:01:27.381Z,0.00
2018-02-22T01:02:27.253Z,0.00
2018-02-22T01:03:27.110Z,0.00
2018-02-22T01:04:26.973Z,0.00
2018-02-22T01:05:26.836Z,0.00
2018-02-22T01:06:26.699Z,0.00
2018-02-22T01:07:26.564Z,0.00
2018-02-22T01:08:26.425Z,0.00
2018-02-22T01:09:26.289Z,0.00
2018-02-22T01:10:26.151Z,0.00
2018-02-22T01:11:26.016Z,0.00
2018-02-22T01:12:25.878Z,0.00
2018-02-22T01:13:25.746Z,0.00
2018-02-22T01:14:25.607Z,0.00
2018-02-22T01:15:25.471Z,0.00
2018-02-22T01:16:25.333Z,0.00
2018-02-22T01:17:25.197Z,0.00
2018-02-22T01:18:25.061Z,0.00
2018-02-22T01:19:24.923Z,0.00
2018-02-22T01:20:24.787Z,0.00
2018-02-22T01:21:24.650Z,0.00
2018-02-22T01:22:24.513Z,0.00
2018-02-22T01:23:24.377Z,0.00
2018-02-22T01:24:24.236Z,0.00
2018-02-22T01:25:24.103Z,0.00
2018-02-22T01:26:23.966Z,0.00
2018-02-22T01:27:23.827Z,0.00
2018-02-22T01:28:23.692Z,0.00
2018-02-22T01:29:23.556Z,0.00
2018-02-22T01:30:23.419Z,0.00
2018-02-22T01:31:23.281Z,0.00
2018-02-22T01:32:23.143Z,0.00
2018-02-22T01:33:23.008Z,0.00
2018-02-22T01:34:22.870Z,0.00
2018-02-22T01:35:22.734Z,0.00
2018-02-22T01:36:22.598Z,0.00
2018-02-22T01:37:22.461Z,0.00
2018-02-22T01:38:22.325Z,0.00
2018-02-22T01:39:22.187Z,0.00
2018-02-22T01:40:22.049Z,0.00
2018-02-22T01:41:21.914Z,0.00
2018-02-22T01:42:21.778Z,0.00
2018-02-22T01:43:21.644Z,0.00
2018-02-22T01:44:21.505Z,0.00
2018-02-22T01:45:21.364Z,0.00
2018-02-22T01:46:21.229Z,0.00
2018-02-22T01:47:21.095Z,0.00
2018-02-22T01:48:20.956Z,0.00
2018-02-22T01:49:20.822Z,0.00
2018-02-22T01:50:20.682Z,0.00
2018-02-22T01:51:20.546Z,0.00
2018-02-22T01:52:20.409Z,0.00
2018-02-22T01:53:20.273Z,0.00
2018-02-22T01:54:20.142Z,0.00
2018-02-22T01:55:20.000Z,0.00
2018-02-22T01:56:19.865Z,0.00
2018-02-22T01:57:19.728Z,0.00
2018-02-22T01:58:19.597Z,0.00
2018-02-22T01:59:19.454Z,0.00
2018-02-22T02:00:19.316Z,0.00
2018-02-22T02:01:19.181Z,0.00
2018-02-22T02:02:19.046Z,0.00
2018-02-22T02:03:18.909Z,0.00
2018-02-22T02:04:18.773Z,0.00
2018-02-22T02:05:18.635Z,0.00
2018-02-22T02:06:18.500Z,0.00
2018-02-22T02:07:18.361Z,0.00
2018-02-22T02:08:18.224Z,0.00
2018-02-22T02:09:18.088Z,0.00
2018-02-22T02:10:17.957Z,0.00
2018-02-22T02:11:17.822Z,0.00
2018-02-22T02:12:17.680Z,0.00
2018-02-22T02:13:17.544Z,0.00
2018-02-22T02:14:17.412Z,0.00
2018-02-22T02:15:17.273Z,0.00
2018-02-22T02:16:17.134Z,0.00
2018-02-22T02:17:16.999Z,0.00
2018-02-22T02:18:16.863Z,0.00
2018-02-22T02:19:16.736Z,0.00
2018-02-22T02:20:16.588Z,0.00
2018-02-22T02:21:16.454Z,0.00
2018-02-22T02:22:16.322Z,0.00
2018-02-22T02:23:16.183Z,0.00
2018-02-22T02:24:16.051Z,0.00
2018-02-22T02:25:15.907Z,0.00
2018-02-22T02:26:15.772Z,0.00
2018-02-22T02:27:15.638Z,0.00
2018-02-22T02:28:15.499Z,0.00
2018-02-22T02:29:15.366Z,0.00
2018-02-22T02:30:15.228Z,0.00
2018-02-22T02:31:15.096Z,0.00
2018-02-22T02:32:14.958Z,0.00
2018-02-22T02:33:14.819Z,0.00
2018-02-22T02:34:14.687Z,0.00
2018-02-22T02:35:14.553Z,0.00
2018-02-22T02:36:14.408Z,0.00
2018-02-22T02:37:14.275Z,0.00
2018-02-22T02:38:14.142Z,0.00
2018-02-22T02:39:14.003Z,0.00
2018-02-22T02:40:13.867Z,0.00
2018-02-22T02:41:13.729Z,0.00
2018-02-22T02:42:13.592Z,0.00
2018-02-22T02:43:13.458Z,0.00
2018-02-22T02:44:13.323Z,0.00
2018-02-22T02:45:13.183Z,0.00
2018-02-22T02:46:13.047Z,0.00
2018-02-22T02:47:12.907Z,0.00
2018-02-22T02:48:12.775Z,0.00
2018-02-22T02:49:12.639Z,0.00
2018-02-22T02:50:12.502Z,0.00
2018-02-22T02:51:12.364Z,0.00
2018-02-22T02:52:12.228Z,0.00
2018-02-22T02:53:12.087Z,0.00
2018-02-22T02:54:11.962Z,0.00
2018-02-22T02:55:11.815Z,0.00
2018-02-22T02:56:11.677Z,0.00
2018-02-22T02:57:11.544Z,0.00
2018-02-22T02:58:11.406Z,0.00
2018-02-22T02:59:11.270Z,0.00
2018-02-22T03:00:11.131Z,0.00
2018-02-22T03:01:10.993Z,0.00
2018-02-22T03:02:10.856Z,0.00
2018-02-22T03:03:10.720Z,0.00
2018-02-22T03:04:10.582Z,0.00
2018-02-22T03:05:10.448Z,0.00
2018-02-22T03:06:10.311Z,0.00
2018-02-22T03:07:10.170Z,0.00
2018-02-22T03:08:10.036Z,0.00
2018-02-22T03:09:09.896Z,0.00
2018-02-22T03:10:09.762Z,0.00
2018-02-22T03:11:09.627Z,0.00
2018-02-22T03:12:09.486Z,0.00
2018-02-22T03:13:09.349Z,0.00
2018-02-22T03:14:09.213Z,0.00
2018-02-22T03:15:09.076Z,0.00
2018-02-22T03:16:08.939Z,0.00
2018-02-22T03:17:08.804Z,0.00
2018-02-22T03:18:08.667Z,0.00
2018-02-22T03:19:08.534Z,0.00
2018-02-22T03:20:08.393Z,0.00
2018-02-22T03:21:08.264Z,0.00
2018-02-22T03:22:08.119Z,0.00
2018-02-22T03:23:07.983Z,0.00
2018-02-22T03:24:07.843Z,0.00
2018-02-22T03:25:07.711Z,0.00
2018-02-22T03:26:07.576Z,0.00
2018-02-22T03:27:07.435Z,0.00
2018-02-22T03:28:07.303Z,0.00
2018-02-22T03:29:07.162Z,0.00
2018-02-22T03:30:07.025Z,0.00
2018-02-22T03:31:06.890Z,0.00
2018-02-22T03:32:06.756Z,0.00
2018-02-22T03:33:06.613Z,0.00
2018-02-22T03:34:06.481Z,0.00
2018-02-22T03:35:06.340Z,0.00
2018-02-22T03:36:06.201Z,0.00
2018-02-22T03:37:06.065Z,0.00
2018-02-22T03:38:05.927Z,0.00
2018-02-22T03:39:05.790Z,0.00
2018-02-22T03:40:05.653Z,0.00
2018-02-22T03:41:05.516Z,0.00
2018-02-22T03:42:05.382Z,0.00
2018-02-22T03:43:05.247Z,0.00
2018-02-22T03:44:05.111Z,0.00
2018-02-22T03:45:04.973Z,0.00
2018-02-22T03:46:04.848Z,0.00
2018-02-22T03:47:04.696Z,0.00
2018-02-22T03:48:04.558Z,0.00
2018-02-22T03:49:04.424Z,0.00
2018-02-22T03:50:04.286Z,0.00
2018-02-22T03:51:04.150Z,0.00
2018-02-22T03:52:04.010Z,0.00
2018-02-22T03:53:03.873Z,0.00
2018-02-22T03:54:03.736Z,0.00
2018-02-22T03:55:03.608Z,0.00
2018-02-22T03:56:03.465Z,0.00
2018-02-22T03:57:03.327Z,0.00
2018-02-22T03:58:03.190Z,0.00
2018-02-22T03:59:03.053Z,0.00
2018-02-22T04:00:02.921Z,0.00
2018-02-22T04:01:02.778Z,0.00
2018-02-22T04:02:02.642Z,0.00
2018-02-22T04:03:02.507Z,0.00
2018-02-22T04:04:02.367Z,0.00
2018-02-22T04:05:02.231Z,0.00
2018-02-22T04:06:02.094Z,0.00
2018-02-22T04:07:01.960Z,0.00
2018-02-22T04:08:01.820Z,0.00
2018-02-22T04:09:01.681Z,0.00
2018-02-22T04:10:01.544Z,0.00
2018-02-22T04:11:01.410Z,0.00
2018-02-22T04:12:01.274Z,0.00
2018-02-22T04:13:01.133Z,0.00
2018-02-22T04:14:00.993Z,0.00
2018-02-22T04:15:00.856Z,0.00
2018-02-22T04:16:00.720Z,0.00
2018-02-22T04:17:00.581Z,0.00
2018-02-22T04:18:00.445Z,0.00
2018-02-22T04:19:00.308Z,0.00
2018-02-22T04:20:00.171Z,0.00
2018-02-22T04:21:00.032Z,0.00
2018-02-22T04:21:59.894Z,0.00
2018-02-22T04:22:59.757Z,0.00
2018-02-22T04:23:59.619Z,0.00
2018-02-22T04:24:59.486Z,0.00
2018-02-22T04:25:59.345Z,0.00
2018-02-22T04:26:59.205Z,0.00
2018-02-22T04:27:59.072Z,0.00
2018-02-22T04:28:58.932Z,0.00
2018-02-22T04:29:58.799Z,0.00
2018-02-22T04:30:58.659Z,0.00
2018-02-22T04:31:58.518Z,0.00
2018-02-22T04:32:58.382Z,0.00
2018-02-22T04:33:58.245Z,0.00
2018-02-22T04:34:58.107Z,0.00
2018-02-22T04:35:57.972Z,0.00
2018-02-22T04:36:57.833Z,0.00
2018-02-22T04:37:57.697Z,0.00
2018-02-22T04:38:57.560Z,0.00
2018-02-22T04:39:57.421Z,0.00
2018-02-22T04:40:57.284Z,0.00
2018-02-22T04:41:57.148Z,0.00
2018-02-22T04:42:57.011Z,0.00
2018-02-22T04:43:56.871Z,0.00
2018-02-22T04:44:56.737Z,0.00
2018-02-22T04:45:56.598Z,0.00
2018-02-22T04:46:56.462Z,0.00
2018-02-22T04:47:56.324Z,0.00
2018-02-22T04:48:56.186Z,0.00
2018-02-22T04:49:56.051Z,0.00
2018-02-22T04:50:55.912Z,0.00
2018-02-22T04:51:55.782Z,0.00
2018-02-22T04:52:55.641Z,0.00
2018-02-22T04:53:55.501Z,0.00
2018-02-22T04:54:55.366Z,0.00
2018-02-22T04:55:55.230Z,0.00
2018-02-22T04:56:55.090Z,0.00
2018-02-22T04:57:54.952Z,0.00
2018-02-22T04:58:54.818Z,0.00
2018-02-22T04:59:54.684Z,0.00
2018-02-22T05:00:54.542Z,0.00
2018-02-22T05:01:54.405Z,0.00
2018-02-22T05:02:54.271Z,0.00
2018-02-22T05:03:54.130Z,0.00
2018-02-22T05:04:53.997Z,0.00
2018-02-22T05:05:53.860Z,0.00
2018-02-22T05:06:53.723Z,0.00
2018-02-22T05:07:53.594Z,0.00
2018-02-22T05:08:53.482Z,0.00
2018-02-22T05:09:53.312Z,0.00
2018-02-22T05:10:53.176Z,0.00
2018-02-22T05:11:53.037Z,0.00
2018-02-22T05:12:52.907Z,0.00
2018-02-22T05:13:52.774Z,0.00
2018-02-22T05:14:52.630Z,0.00
2018-02-22T05:15:52.493Z,0.00
2018-02-22T05:16:52.356Z,0.00
2018-02-22T05:17:52.222Z,0.00
2018-02-22T05:18:52.082Z,0.00
2018-02-22T05:19:51.947Z,0.00
2018-02-22T05:20:51.810Z,0.00
2018-02-22T05:21:51.673Z,0.00
2018-02-22T05:22:51.541Z,0.00
2018-02-22T05:23:51.410Z,0.00
2018-02-22T05:24:51.261Z,0.00
2018-02-22T05:25:51.124Z,0.00
2018-02-22T05:26:50.988Z,0.00
2018-02-22T05:27:50.853Z,0.00
2018-02-22T05:28:50.744Z,0.00
2018-02-22T05:29:50.578Z,0.00
2018-02-22T05:30:50.442Z,0.00
2018-02-22T05:31:50.305Z,0.00
2018-02-22T05:32:50.170Z,0.00
2018-02-22T05:33:50.039Z,0.00
2018-02-22T05:34:49.896Z,0.00
2018-02-22T05:35:49.761Z,0.00
2018-02-22T05:36:49.620Z,0.00
2018-02-22T05:37:49.491Z,0.00
2018-02-22T05:38:49.353Z,0.00
2018-02-22T05:39:49.209Z,0.00
2018-02-22T05:40:49.074Z,0.00
2018-02-22T05:41:48.940Z,0.00
2018-02-22T05:42:48.805Z,0.00
2018-02-22T05:43:48.666Z,0.00
2018-02-22T05:44:48.529Z,0.00
2018-02-22T05:45:48.391Z,0.00
2018-02-22T05:46:48.257Z,0.00
2018-02-22T05:47:48.117Z,0.00
2018-02-22T05:48:47.988Z,0.00
2018-02-22T05:49:47.842Z,0.00
2018-02-22T05:50:47.709Z,0.00
2018-02-22T05:51:47.573Z,4.00
2018-02-22T05:52:47.433Z,4.00
2018-02-22T05:53:47.299Z,4.00
2018-02-22T05:54:47.160Z,4.00
2018-02-22T05:55:47.020Z,4.00
2018-02-22T05:56:46.884Z,4.00
2018-02-22T05:57:46.748Z,4.00
2018-02-22T05:58:46.646Z,4.00
2018-02-22T05:59:46.486Z,8.00
2018-02-22T06:00:46.500Z,8.00
2018-02-22T06:01:46.202Z,8.00
2018-02-22T06:02:46.065Z,8.00
2018-02-22T06:03:45.928Z,12.00
2018-02-22T06:04:45.792Z,16.00
2018-02-22T06:05:45.654Z,16.00
2018-02-22T06:06:45.517Z,20.00
2018-02-22T06:07:45.381Z,20.00
2018-02-22T06:08:45.246Z,20.00
2018-02-22T06:09:45.106Z,24.00
2018-02-22T06:10:44.971Z,32.00
2018-02-22T06:11:44.832Z,36.00
2018-02-22T06:12:44.699Z,36.00
2018-02-22T06:13:44.562Z,44.00
2018-02-22T06:14:44.424Z,48.00
2018-02-22T06:15:44.286Z,48.00
2018-02-22T06:16:44.150Z,52.00
2018-02-22T06:17:44.013Z,60.00
2018-02-22T06:18:43.877Z,64.00
2018-02-22T06:19:43.741Z,72.00
2018-02-22T06:20:43.602Z,80.00
2018-02-22T06:21:43.467Z,88.00
2018-02-22T06:22:43.330Z,100.00
2018-02-22T06:23:43.192Z,104.00
2018-02-22T06:24:43.056Z,116.00
2018-02-22T06:25:42.921Z,124.00
2018-02-22T06:26:42.782Z,132.00
2018-02-22T06:27:42.646Z,140.00
2018-02-22T06:28:42.510Z,144.00
2018-02-22T06:29:42.373Z,148.00
2018-02-22T06:30:42.233Z,152.00
2018-02-22T06:31:42.098Z,152.00
2018-02-22T06:32:41.960Z,156.00
2018-02-22T06:33:41.825Z,160.00
2018-02-22T06:34:41.689Z,168.00
2018-02-22T06:35:41.550Z,176.00
2018-02-22T06:36:41.415Z,188.00
2018-02-22T06:37:41.276Z,192.00
2018-02-22T06:38:41.143Z,204.00
2018-02-22T06:39:41.003Z,208.00
2018-02-22T06:40:40.872Z,220.00
2018-02-22T06:41:40.729Z,232.00
2018-02-22T06:42:40.592Z,248.00
2018-02-22T06:43:40.460Z,260.00
2018-02-22T06:44:40.318Z,276.00
2018-02-22T06:45:40.181Z,300.00
2018-02-22T06:46:40.046Z,328.00
2018-02-22T06:47:39.909Z,356.00
2018-02-22T06:48:39.772Z,388.00
2018-02-22T06:49:39.633Z,408.00
2018-02-22T06:50:39.497Z,428.00
2018-02-22T06:51:39.361Z,448.00
2018-02-22T06:52:39.226Z,476.00
2018-02-22T06:53:39.088Z,512.00
2018-02-22T06:54:38.954Z,548.00
2018-02-22T06:55:38.814Z,576.00
2018-02-22T06:56:38.677Z,596.00
2018-02-22T06:57:38.538Z,616.00
2018-02-22T06:58:38.401Z,640.00
2018-02-22T06:59:38.266Z,672.00
2018-02-22T07:00:38.128Z,708.00
2018-02-22T07:01:37.993Z,728.00
2018-02-22T07:02:37.855Z,736.00
2018-02-22T07:03:37.718Z,740.00
2018-02-22T07:04:37.581Z,748.00
2018-02-22T07:05:37.443Z,772.00
2018-02-22T07:06:37.308Z,816.00
2018-02-22T07:07:37.170Z,856.00
2018-02-22T07:08:37.033Z,884.00
2018-02-22T07:09:36.894Z,896.00
2018-02-22T07:10:36.759Z,904.00
2018-02-22T07:11:36.621Z,928.00
2018-02-22T07:12:36.529Z,948.00
2018-02-22T07:13:36.358Z,960.00
2018-02-22T07:14:36.213Z,972.00
2018-02-22T07:15:36.076Z,1004.00
2018-02-22T07:16:35.939Z,1036.00
2018-02-22T07:17:35.802Z,1052.00
2018-02-22T07:18:35.664Z,1064.00
2018-02-22T07:19:35.527Z,1116.00
2018-02-22T07:20:35.439Z,1160.00
2018-02-22T07:21:35.254Z,1196.00
2018-02-22T07:22:35.121Z,1240.00
2018-02-22T07:23:34.981Z,1296.00
2018-02-22T07:24:34.845Z,1356.00
2018-02-22T07:25:34.718Z,1408.00
2018-02-22T07:26:34.570Z,1464.00
2018-02-22T07:27:34.438Z,1524.00
2018-02-22T07:28:34.301Z,1572.00
2018-02-22T07:29:34.162Z,1620.00
2018-02-22T07:30:34.032Z,1660.00
2018-02-22T07:31:33.889Z,1708.00
2018-02-22T07:32:33.762Z,1768.00
2018-02-22T07:33:33.614Z,1844.00
2018-02-22T07:34:33.480Z,1928.00
2018-02-22T07:35:33.348Z,1964.00
2018-02-22T07:36:33.205Z,1968.00
2018-02-22T07:37:33.074Z,2004.00
2018-02-22T07:38:32.936Z,2092.00
2018-02-22T07:39:32.795Z,2172.00
2018-02-22T07:40:32.662Z,2188.00
2018-02-22T07:41:32.526Z,2180.00
2018-02-22T07:42:32.392Z,2216.00
2018-02-22T07:43:32.250Z,2256.00
2018-02-22T07:44:32.114Z,2304.00
2018-02-22T07:45:31.986Z,2352.00
2018-02-22T07:46:31.844Z,2356.00
2018-02-22T07:47:31.710Z,2304.00
2018-02-22T07:48:31.569Z,2280.00
2018-02-22T07:49:31.434Z,2292.00
2018-02-22T07:50:31.298Z,2296.00
2018-02-22T07:51:31.157Z,2224.00
2018-02-22T07:52:31.025Z,2120.00
2018-02-22T07:53:30.887Z,2068.00
2018-02-22T07:54:30.755Z,2080.00
2018-02-22T07:55:30.619Z,2096.00
2018-02-22T07:56:30.475Z,2060.00
2018-02-22T07:57:30.340Z,1992.00
2018-02-22T07:58:30.202Z,1952.00
2018-02-22T07:59:30.068Z,1948.00
2018-02-22T08:00:29.936Z,1940.00
2018-02-22T08:01:29.795Z,1892.00
2018-02-22T08:02:29.658Z,1840.00
2018-02-22T08:03:29.522Z,1828.00
2018-02-22T08:04:29.386Z,1836.00
2018-02-22T08:05:29.252Z,1844.00
2018-02-22T08:06:29.114Z,1836.00
2018-02-22T08:07:28.979Z,1832.00
2018-02-22T08:08:28.841Z,1864.00
2018-02-22T08:09:28.704Z,1892.00
2018-02-22T08:10:28.571Z,1908.00
2018-02-22T08:11:28.431Z,1908.00
2018-02-22T08:12:28.299Z,1912.00
2018-02-22T08:13:28.160Z,1920.00
2018-02-22T08:14:28.024Z,1928.00
2018-02-22T08:15:27.890Z,1940.00
2018-02-22T08:16:27.751Z,1968.00
2018-02-22T08:17:27.616Z,2016.00
2018-02-22T08:18:27.479Z,2076.00
2018-02-22T08:19:27.342Z,2136.00
2018-02-22T08:20:27.205Z,2188.00
2018-02-22T08:21:27.070Z,2252.00
2018-02-22T08:22:26.942Z,2320.00
2018-02-22T08:23:26.799Z,2404.00
2018-02-22T08:24:26.662Z,2476.00
2018-02-22T08:25:26.525Z,2516.00
2018-02-22T08:26:26.390Z,2528.00
2018-02-22T08:27:26.254Z,2576.00
2018-02-22T08:28:26.116Z,2668.00
2018-02-22T08:29:25.983Z,2760.00
2018-02-22T08:30:25.849Z,2816.00
2018-02-22T08:31:25.712Z,2840.00
2018-02-22T08:32:25.573Z,2856.00
2018-02-22T08:33:25.440Z,2888.00
2018-02-22T08:34:25.305Z,2980.00
2018-02-22T08:35:25.167Z,3104.00
2018-02-22T08:36:25.031Z,3172.00
2018-02-22T08:37:24.898Z,3128.00
2018-02-22T08:38:24.761Z,3080.00
2018-02-22T08:39:24.623Z,3128.00
2018-02-22T08:40:24.488Z,3256.00
2018-02-22T08:41:24.355Z,3380.00
2018-02-22T08:42:24.223Z,3424.00
2018-02-22T08:43:24.094Z,3388.00
2018-02-22T08:44:23.946Z,3368.00
2018-02-22T08:45:23.811Z,3428.00
2018-02-22T08:46:23.677Z,3520.00
2018-02-22T08:47:23.538Z,3592.00
2018-02-22T08:48:23.408Z,3632.00
2018-02-22T08:49:23.267Z,3712.00
2018-02-22T08:50:23.137Z,3804.00
2018-02-22T08:51:22.994Z,3912.00
2018-02-22T08:52:22.860Z,3968.00
2018-02-22T08:53:22.726Z,4028.00
2018-02-22T08:54:22.592Z,4128.00
2018-02-22T08:55:22.452Z,4324.00
2018-02-22T08:56:22.314Z,4564.00
2018-02-22T08:57:22.180Z,4796.00
2018-02-22T08:58:22.044Z,5016.00
2018-02-22T08:59:21.910Z,5220.00
2018-02-22T09:00:21.773Z,5460.00
2018-02-22T09:01:21.638Z,5808.00
2018-02-22T09:02:21.502Z,6248.00
2018-02-22T09:03:21.369Z,6728.00
2018-02-22T09:04:21.229Z,7148.00
2018-02-22T09:05:21.093Z,7464.00
2018-02-22T09:06:20.959Z,7488.00
2018-02-22T09:07:20.822Z,7404.00
2018-02-22T09:08:20.689Z,7356.00
2018-02-22T09:09:20.551Z,7200.00
2018-02-22T09:10:20.419Z,6996.00
2018-02-22T09:11:20.281Z,6996.00
2018-02-22T09:12:20.147Z,7052.00
2018-02-22T09:13:20.011Z,7048.00
2018-02-22T09:14:19.877Z,6884.00
2018-02-22T09:15:19.740Z,6552.00
2018-02-22T09:16:19.609Z,6180.00
2018-02-22T09:17:19.472Z,5824.00
2018-02-22T09:18:19.343Z,5504.00
2018-02-22T09:19:19.200Z,5184.00
2018-02-22T09:20:19.067Z,4864.00
2018-02-22T09:21:18.930Z,4660.00
2018-02-22T09:22:18.797Z,4592.00
2018-02-22T09:23:18.661Z,4644.00
2018-02-22T09:24:18.533Z,4696.00
2018-02-22T09:25:18.395Z,4680.00
2018-02-22T09:26:18.259Z,4600.00
2018-02-22T09:27:18.123Z,4540.00
2018-02-22T09:28:17.988Z,4476.00
2018-02-22T09:29:17.856Z,4392.00
2018-02-22T09:30:17.722Z,4380.00
2018-02-22T09:31:17.584Z,4420.00
2018-02-22T09:32:17.473Z,4468.00
2018-02-22T09:33:17.314Z,4512.00
2018-02-22T09:34:17.180Z,4592.00
2018-02-22T09:35:17.042Z,4704.00
2018-02-22T09:36:16.908Z,4852.00
2018-02-22T09:37:16.773Z,5044.00
2018-02-22T09:38:16.638Z,5264.00
2018-02-22T09:39:16.504Z,5484.00
2018-02-22T09:40:16.370Z,5636.00
2018-02-22T09:41:16.235Z,5728.00
2018-02-22T09:42:16.103Z,5804.00
2018-02-22T09:43:15.965Z,5936.00
2018-02-22T09:44:15.832Z,6124.00
2018-02-22T09:45:15.696Z,6328.00
2018-02-22T09:46:15.563Z,6508.00
2018-02-22T09:47:15.427Z,6640.00
2018-02-22T09:48:15.293Z,6752.00
2018-02-22T09:49:15.159Z,6848.00
2018-02-22T09:50:15.028Z,6988.00
2018-02-22T09:51:14.888Z,7184.00
2018-02-22T09:52:14.755Z,7340.00
2018-02-22T09:53:14.621Z,7404.00
2018-02-22T09:54:14.487Z,7512.00
2018-02-22T09:55:14.351Z,7520.00
2018-02-22T09:56:14.221Z,7732.00
2018-02-22T09:57:14.086Z,8208.00
2018-02-22T09:58:13.949Z,8464.00
2018-02-22T09:59:13.817Z,8832.00
2018-02-22T10:00:13.682Z,9268.00
2018-02-22T10:01:13.548Z,9348.00
2018-02-22T10:02:13.416Z,9144.00
2018-02-22T10:03:13.281Z,9008.00
2018-02-22T10:04:13.151Z,9024.00
2018-02-22T10:05:13.016Z,9004.00
2018-02-22T10:06:12.899Z,9080.00
2018-02-22T10:07:12.748Z,9384.00
2018-02-22T10:08:12.621Z,9716.00
2018-02-22T10:09:12.484Z,9912.00
2018-02-22T10:10:12.351Z,9912.00
2018-02-22T10:11:12.218Z,9380.00
2018-02-22T10:12:12.084Z,9084.00
2018-02-22T10:13:11.960Z,9092.00
2018-02-22T10:14:11.821Z,9208.00
2018-02-22T10:15:11.688Z,9860.00
2018-02-22T10:16:11.560Z,9548.00
2018-02-22T10:17:11.424Z,9856.00
2018-02-22T10:18:11.313Z,9804.00
2018-02-22T10:19:11.171Z,9452.00
2018-02-22T10:20:11.030Z,9492.00
2018-02-22T10:21:10.898Z,9944.00
2018-02-22T10:22:10.766Z,10364.00
2018-02-22T10:23:10.632Z,10356.00
2018-02-22T10:24:10.504Z,10100.00
2018-02-22T10:25:10.370Z,9124.00
2018-02-22T10:26:10.244Z,8720.00
2018-02-22T10:27:10.107Z,8492.00
2018-02-22T10:28:09.975Z,8332.00
2018-02-22T10:29:09.843Z,8100.00
2018-02-22T10:30:09.713Z,7964.00
2018-02-22T10:31:09.579Z,7852.00
2018-02-22T10:32:09.452Z,7756.00
2018-02-22T10:33:09.314Z,7664.00
2018-02-22T10:34:09.183Z,7656.00
2018-02-22T10:35:09.052Z,7544.00
2018-02-22T10:36:08.921Z,7328.00
2018-02-22T10:37:08.786Z,7144.00
2018-02-22T10:38:08.653Z,7536.00
2018-02-22T10:39:08.550Z,7696.00
2018-02-22T10:40:08.385Z,7644.00
2018-02-22T10:41:08.254Z,7440.00
2018-02-22T10:42:08.129Z,7796.00
2018-02-22T10:43:07.995Z,8172.00
2018-02-22T10:44:07.859Z,8296.00
2018-02-22T10:45:07.727Z,7916.00
2018-02-22T10:46:07.596Z,7796.00
2018-02-22T10:47:07.464Z,7812.00
2018-02-22T10:48:07.328Z,7592.00
2018-02-22T10:49:07.198Z,7668.00
2018-02-22T10:50:07.080Z,7972.00
2018-02-22T10:51:06.932Z,8548.00
2018-02-22T10:52:06.801Z,8992.00
2018-02-22T10:53:06.667Z,9184.00
2018-02-22T10:54:06.538Z,9128.00
2018-02-22T10:55:06.400Z,8772.00
2018-02-22T10:56:06.282Z,8628.00
2018-02-22T10:57:06.138Z,8620.00
2018-02-22T10:58:06.004Z,8696.00
2018-02-22T10:59:05.874Z,8820.00
2018-02-22T11:00:05.741Z,9096.00
2018-02-22T11:01:05.607Z,9524.00
2018-02-22T11:02:05.475Z,9952.00
2018-02-22T11:03:05.342Z,10412.00
2018-02-22T11:04:05.213Z,10512.00
2018-02-22T11:05:05.079Z,10632.00
2018-02-22T11:06:04.948Z,10868.00
2018-02-22T11:07:04.817Z,11128.00
2018-02-22T11:08:04.682Z,11160.00
2018-02-22T11:09:04.553Z,11252.00
2018-02-22T11:10:04.420Z,11036.00
2018-02-22T11:11:04.288Z,10648.00
2018-02-22T11:12:04.163Z,10408.00
2018-02-22T11:13:04.023Z,9084.00
2018-02-22T11:14:03.893Z,9876.00
2018-02-22T11:15:03.767Z,10128.00
2018-02-22T11:16:03.630Z,9312.00
2018-02-22T11:17:03.502Z,8396.00
2018-02-22T11:18:03.369Z,8696.00
2018-02-22T11:19:03.241Z,9016.00
2018-02-22T11:20:03.108Z,8848.00
2018-02-22T11:21:02.979Z,8820.00
2018-02-22T11:22:02.852Z,8752.00
2018-02-22T11:23:02.719Z,7772.00
2018-02-22T11:24:02.591Z,7848.00
2018-02-22T11:25:02.460Z,8164.00
2018-02-22T11:26:02.329Z,8548.00
2018-02-22T11:27:02.199Z,8480.00
2018-02-22T11:28:02.126Z,8028.00
2018-02-22T11:29:01.940Z,7252.00
2018-02-22T11:30:01.811Z,7448.00
2018-02-22T11:31:01.684Z,6580.00
2018-02-22T11:32:01.552Z,6340.00
2018-02-22T11:33:01.422Z,6352.00
2018-02-22T11:34:01.293Z,7504.00
2018-02-22T11:35:01.166Z,9348.00
2018-02-22T11:36:01.079Z,9568.00
2018-02-22T11:37:00.905Z,9112.00
2018-02-22T11:38:00.774Z,8952.00
2018-02-22T11:39:00.648Z,8648.00
2018-02-22T11:40:00.514Z,8996.00
2018-02-22T11:41:00.382Z,9328.00
2018-02-22T11:42:00.256Z,10188.00
2018-02-22T11:43:00.119Z,9872.00
2018-02-22T11:43:59.990Z,9160.00
2018-02-22T11:44:59.858Z,12748.00
2018-02-22T11:45:59.728Z,14740.00
2018-02-22T11:46:59.596Z,15636.00
2018-02-22T11:47:59.465Z,11648.00
2018-02-22T11:48:59.331Z,10484.00
2018-02-22T11:49:59.203Z,7960.00
2018-02-22T11:50:59.072Z,7624.00
2018-02-22T11:51:58.939Z,7348.00
2018-02-22T11:52:58.807Z,7460.00
2018-02-22T11:53:58.677Z,7708.00
2018-02-22T11:54:58.547Z,8212.00
2018-02-22T11:55:58.413Z,8380.00
2018-02-22T11:56:58.297Z,8764.00
2018-02-22T11:57:58.153Z,9664.00
2018-02-22T11:58:58.024Z,10400.00
2018-02-22T11:59:57.887Z,11440.00
2018-02-22T12:00:57.758Z,13040.00
2018-02-22T12:01:57.627Z,14328.00
2018-02-22T12:02:57.494Z,13020.00
2018-02-22T12:03:57.360Z,11648.00
2018-02-22T12:04:57.232Z,11432.00
2018-02-22T12:05:57.099Z,11340.00
2018-02-22T12:06:56.966Z,10404.00
2018-02-22T12:07:56.834Z,9400.00
2018-02-22T12:08:56.705Z,9488.00
2018-02-22T12:09:56.573Z,11368.00
2018-02-22T12:10:56.440Z,14880.00
2018-02-22T12:11:56.309Z,10144.00
2018-02-22T12:12:56.176Z,9140.00
2018-02-22T12:13:56.047Z,8956.00
2018-02-22T12:14:55.913Z,9240.00
2018-02-22T12:15:55.780Z,9752.00
2018-02-22T12:16:55.648Z,9632.00
2018-02-22T12:17:55.518Z,9300.00
2018-02-22T12:18:55.386Z,8984.00
2018-02-22T12:19:55.253Z,8800.00
2018-02-22T12:20:55.123Z,8736.00
2018-02-22T12:21:54.991Z,9164.00
2018-02-22T12:22:54.859Z,9196.00
2018-02-22T12:23:54.727Z,9804.00
2018-02-22T12:24:54.600Z,10316.00
2018-02-22T12:25:54.462Z,10296.00
2018-02-22T12:26:54.328Z,10112.00
2018-02-22T12:27:54.198Z,10508.00
2018-02-22T12:28:54.065Z,12124.00
2018-02-22T12:29:53.939Z,12988.00
2018-02-22T12:30:53.805Z,10508.00
2018-02-22T12:31:53.674Z,9764.00
2018-02-22T12:32:53.541Z,9472.00
2018-02-22T12:33:53.413Z,7756.00
2018-02-22T12:34:53.276Z,7836.00
2018-02-22T12:35:53.147Z,8716.00
2018-02-22T12:36:53.015Z,8560.00
2018-02-22T12:37:52.884Z,8824.00
2018-02-22T12:38:52.751Z,8988.00